createdAt,value
2022-08-07T00:02:36.988Z,21.43
2022-08-07T00:04:55.964Z,22.39
2022-08-07T00:07:27.270Z,22.95
2022-08-07T00:10:19.106Z,22.95
2022-08-07T00:12:27.013Z,22.42
2022-08-07T00:14:56.314Z,22.67
2022-08-07T00:17:26.222Z,21.23
2022-08-07T00:20:01.461Z,21.48
2022-08-07T00:22:35.315Z,20.57
2022-08-07T00:24:57.816Z,20.57
2022-08-07T00:27:28.784Z,21.71
2022-08-07T00:29:59.307Z,21.40
2022-08-07T00:32:28.672Z,21.40
2022-08-07T00:34:57.887Z,21.87
2022-08-07T00:37:29.412Z,20.79
2022-08-07T00:39:57.973Z,21.01
2022-08-07T00:42:29.283Z,21.01
2022-08-07T00:44:58.589Z,20.75
2022-08-07T00:48:07.777Z,20.75
2022-08-07T00:50:20.315Z,21.39
2022-08-07T00:52:29.856Z,21.27
2022-08-07T00:55:04.687Z,21.16
2022-08-07T00:57:34.151Z,22.76
2022-08-07T01:00:04.181Z,21.89
2022-08-07T01:02:34.676Z,22.22
2022-08-07T01:05:19.059Z,22.33
2022-08-07T01:07:38.143Z,22.33
2022-08-07T01:10:11.037Z,21.94
2022-08-07T01:12:53.526Z,22.12
2022-08-07T01:15:16.863Z,22.12
2022-08-07T01:17:44.151Z,21.21
2022-08-07T01:20:17.465Z,20.94
2022-08-07T01:23:00.766Z,22.30
2022-08-07T01:25:54.613Z,22.21
2022-08-07T01:27:51.597Z,22.89
2022-08-07T01:30:21.642Z,22.96
2022-08-07T01:32:52.753Z,22.96
2022-08-07T01:35:24.437Z,21.45
2022-08-07T01:37:53.910Z,21.45
2022-08-07T01:40:24.475Z,22.37
2022-08-07T01:42:58.630Z,21.77
2022-08-07T01:45:36.923Z,20.73
2022-08-07T01:48:18.623Z,21.09
2022-08-07T01:50:29.357Z,21.30
2022-08-07T01:53:01.494Z,21.25
2022-08-07T01:55:35.087Z,20.69
2022-08-07T01:58:27.340Z,20.93
2022-08-07T02:00:49.064Z,20.52
2022-08-07T02:03:21.267Z,21.31
2022-08-07T02:05:59.868Z,21.28
2022-08-07T02:08:23.839Z,21.28
2022-08-07T02:10:58.176Z,22.37
2022-08-07T02:13:57.163Z,22.37
2022-08-07T02:16:03.801Z,21.37
2022-08-07T02:18:37.734Z,21.29
2022-08-07T02:21:16.177Z,21.59
2022-08-07T02:23:42.935Z,21.20
2022-08-07T02:26:32.522Z,21.47
2022-08-07T02:28:46.736Z,20.91
2022-08-07T02:31:28.220Z,20.91
2022-08-07T02:34:03.873Z,21.07
2022-08-07T02:36:28.340Z,20.37
2022-08-07T02:38:56.811Z,20.92
2022-08-07T02:41:33.424Z,20.92
2022-08-07T02:43:59.892Z,20.81
2022-08-07T02:46:31.499Z,20.04
2022-08-07T02:49:03.303Z,19.69
2022-08-07T02:51:49.932Z,19.69
2022-08-07T02:54:08.561Z,19.85
2022-08-07T02:56:40.796Z,19.84
2022-08-07T02:59:12.502Z,19.71
2022-08-07T03:01:47.081Z,19.71
2022-08-07T03:04:17.516Z,20.27
2022-08-07T03:06:48.800Z,19.10
2022-08-07T03:09:42.232Z,19.10
2022-08-07T03:11:58.022Z,18.45
2022-08-07T03:14:23.353Z,19.29
2022-08-07T03:16:54.376Z,18.32
2022-08-07T03:19:24.064Z,18.32
2022-08-07T03:21:56.127Z,18.97
2022-08-07T03:24:27.226Z,19.00
2022-08-07T03:26:59.551Z,18.17
2022-08-07T03:29:37.446Z,18.17
2022-08-07T03:32:12.780Z,17.97
2022-08-07T03:34:47.260Z,17.97
2022-08-07T03:37:14.168Z,18.46
2022-08-07T03:40:13.433Z,17.95
2022-08-07T03:42:17.269Z,17.85
2022-08-07T03:44:53.346Z,17.74
2022-08-07T03:47:19.169Z,17.74
2022-08-07T03:49:52.507Z,17.96
2022-08-07T03:52:22.858Z,16.53
2022-08-07T03:54:54.975Z,16.53
2022-08-07T03:58:35.251Z,16.12
2022-08-07T04:00:01.544Z,16.05
2022-08-07T04:02:28.551Z,15.65
2022-08-07T04:04:57.886Z,15.65
2022-08-07T04:07:36.166Z,15.26
2022-08-07T04:09:59.282Z,15.26
2022-08-07T04:12:31.827Z,15.49
2022-08-07T04:15:05.048Z,15.93
2022-08-07T04:18:57.335Z,15.55
2022-08-07T04:20:06.828Z,15.55
2022-08-07T04:22:35.889Z,15.88
2022-08-07T04:25:11.857Z,15.88
2022-08-07T04:27:44.110Z,15.83
2022-08-07T04:30:21.229Z,15.94
2022-08-07T04:32:44.970Z,15.94
2022-08-07T04:35:12.840Z,16.11
2022-08-07T04:38:02.925Z,15.93
2022-08-07T04:40:14.046Z,15.67
2022-08-07T04:42:43.664Z,15.67
2022-08-07T04:45:14.167Z,15.70
2022-08-07T04:47:56.947Z,16.14
2022-08-07T04:50:35.168Z,15.96
2022-08-07T04:53:09.156Z,16.07
2022-08-07T04:58:16.378Z,16.07
2022-08-07T04:59:07.704Z,16.10
2022-08-07T05:01:18.069Z,16.07
2022-08-07T05:04:06.665Z,15.94
2022-08-07T05:06:28.267Z,15.61
2022-08-07T05:09:06.150Z,15.19
2022-08-07T05:11:58.349Z,15.19
2022-08-07T05:14:55.449Z,15.84
2022-08-07T05:16:52.993Z,15.91
2022-08-07T05:19:32.689Z,17.50
2022-08-07T05:21:59.319Z,16.93
2022-08-07T05:24:39.465Z,16.35
2022-08-07T05:27:04.089Z,15.07
2022-08-07T05:29:48.048Z,15.07
2022-08-07T05:32:12.770Z,16.29
2022-08-07T05:34:43.118Z,16.16
2022-08-07T05:37:14.598Z,15.80
2022-08-07T05:40:16.569Z,15.80
2022-08-07T05:42:33.304Z,15.35
2022-08-07T05:45:04.499Z,15.35
2022-08-07T05:48:00.028Z,15.53
2022-08-07T05:49:53.300Z,15.53
2022-08-07T05:52:29.852Z,14.12
2022-08-07T05:54:55.994Z,14.12
2022-08-07T05:57:30.216Z,14.73
2022-08-07T06:00:01.249Z,14.30
2022-08-07T06:02:33.121Z,13.83
2022-08-07T06:05:05.071Z,13.83
2022-08-07T06:08:29.144Z,15.53
2022-08-07T06:10:11.313Z,14.41
2022-08-07T06:12:40.358Z,14.41
2022-08-07T06:15:15.275Z,14.84
2022-08-07T06:17:50.611Z,14.84
2022-08-07T06:20:32.024Z,15.49
2022-08-07T06:22:50.566Z,14.88
2022-08-07T06:25:20.646Z,15.11
2022-08-07T06:28:01.326Z,15.46
2022-08-07T06:30:24.366Z,15.46
2022-08-07T06:32:53.072Z,15.07
2022-08-07T06:35:22.210Z,15.54
2022-08-07T06:37:52.910Z,15.59
2022-08-07T06:40:22.807Z,15.59
2022-08-07T06:42:54.806Z,15.33
2022-08-07T06:45:25.338Z,14.91
2022-08-07T06:47:59.033Z,14.91
2022-08-07T06:50:25.602Z,15.20
2022-08-07T06:52:56.679Z,14.48
2022-08-07T06:55:47.874Z,15.18
2022-08-07T06:58:05.656Z,14.71
2022-08-07T07:00:39.746Z,14.71
2022-08-07T07:03:14.342Z,13.47
2022-08-07T07:06:04.188Z,13.34
2022-08-07T07:08:18.819Z,13.34
2022-08-07T07:10:54.723Z,14.26
2022-08-07T07:13:55.743Z,14.30
2022-08-07T07:15:56.490Z,14.30
2022-08-07T07:18:48.305Z,14.64
2022-08-07T07:22:04.328Z,14.14
2022-08-07T07:24:09.555Z,13.45
2022-08-07T07:26:37.145Z,13.98
2022-08-07T07:29:40.151Z,12.41
2022-08-07T07:31:44.490Z,12.41
2022-08-07T07:34:16.453Z,12.97
2022-08-07T07:36:53.803Z,12.90
2022-08-07T07:39:20.912Z,14.66
2022-08-07T07:42:13.470Z,13.97
2022-08-07T07:44:26.856Z,13.97
2022-08-07T07:47:12.074Z,14.03
2022-08-07T07:50:33.100Z,14.99
2022-08-07T07:52:04.092Z,14.19
2022-08-07T07:54:36.393Z,13.60
2022-08-07T07:57:06.749Z,13.60
2022-08-07T07:59:51.577Z,14.22
2022-08-07T08:02:10.975Z,12.68
2022-08-07T08:04:44.524Z,13.37
2022-08-07T08:07:20.131Z,14.37
2022-08-07T08:09:52.358Z,14.37
2022-08-07T08:12:51.111Z,13.44
2022-08-07T08:14:52.552Z,13.22
2022-08-07T08:17:57.607Z,12.42
2022-08-07T08:20:17.643Z,13.02
2022-08-07T08:22:56.089Z,13.02
2022-08-07T08:25:42.836Z,13.55
2022-08-07T08:28:10.169Z,14.16
2022-08-07T08:30:50.805Z,14.16
2022-08-07T08:33:15.303Z,13.78
2022-08-07T08:35:50.782Z,12.72
2022-08-07T08:38:22.007Z,13.46
2022-08-07T08:40:55.922Z,13.51
2022-08-07T08:43:42.901Z,13.77
2022-08-07T08:46:11.599Z,13.77
2022-08-07T08:48:58.821Z,13.36
2022-08-07T08:52:13.923Z,12.91
2022-08-07T08:54:25.887Z,12.91
2022-08-07T08:56:57.637Z,12.64
2022-08-07T08:59:51.011Z,13.05
2022-08-07T09:02:38.000Z,13.01
2022-08-07T09:05:32.106Z,13.22
2022-08-07T09:08:06.868Z,13.10
2022-08-07T09:11:00.407Z,12.70
2022-08-07T09:13:58.109Z,12.70
2022-08-07T09:16:47.527Z,13.44
2022-08-07T09:19:51.441Z,13.18
2022-08-07T09:22:23.021Z,13.27
2022-08-07T09:24:55.560Z,13.27
2022-08-07T09:27:59.641Z,12.63
2022-08-07T09:30:17.511Z,13.29
2022-08-07T09:32:57.137Z,12.96
2022-08-07T09:36:04.300Z,13.07
2022-08-07T09:38:11.146Z,12.51
2022-08-07T09:40:50.193Z,12.51
2022-08-07T09:44:05.660Z,12.78
2022-08-07T09:47:52.544Z,12.59
2022-08-07T09:50:01.222Z,13.33
2022-08-07T09:52:35.299Z,13.33
2022-08-07T09:55:17.321Z,12.23
2022-08-07T09:57:58.902Z,12.09
2022-08-07T10:00:31.959Z,11.93
2022-08-07T10:03:08.125Z,11.84
2022-08-07T10:06:17.584Z,11.81
2022-08-07T10:08:55.831Z,11.81
2022-08-07T10:12:01.331Z,11.58
2022-08-07T10:14:23.116Z,11.58
2022-08-07T10:17:17.457Z,11.76
2022-08-07T10:20:01.497Z,11.75
2022-08-07T10:22:50.846Z,13.15
2022-08-07T10:25:42.489Z,12.00
2022-08-07T10:28:20.615Z,12.00
2022-08-07T10:31:11.252Z,12.20
2022-08-07T10:34:17.985Z,12.07
2022-08-07T10:36:51.849Z,12.74
2022-08-07T10:39:42.198Z,12.45
2022-08-07T10:42:31.316Z,12.40
2022-08-07T10:45:05.980Z,11.85
2022-08-07T10:47:53.773Z,11.85
2022-08-07T10:50:40.111Z,12.58
2022-08-07T10:53:44.059Z,11.72
2022-08-07T10:56:21.044Z,11.72
2022-08-07T10:58:59.381Z,12.66
2022-08-07T11:01:35.356Z,12.29
2022-08-07T11:04:16.744Z,12.29
2022-08-07T11:06:50.970Z,12.69
2022-08-07T11:10:09.341Z,12.49
2022-08-07T11:12:32.094Z,11.98
2022-08-07T11:15:00.457Z,11.98
2022-08-07T11:17:45.176Z,12.39
2022-08-07T11:20:11.234Z,12.23
2022-08-07T11:22:49.874Z,11.97
2022-08-07T11:25:30.594Z,11.77
2022-08-07T11:28:15.329Z,11.77
2022-08-07T11:31:03.189Z,12.10
2022-08-07T11:33:59.231Z,11.84
2022-08-07T11:36:45.302Z,11.99
2022-08-07T11:39:20.587Z,12.26
2022-08-07T11:42:03.028Z,11.72
2022-08-07T11:44:37.865Z,11.98
2022-08-07T11:47:39.067Z,11.34
2022-08-07T11:50:32.827Z,11.34
2022-08-07T11:53:17.765Z,11.82
2022-08-07T11:56:15.641Z,12.02
2022-08-07T11:58:58.793Z,13.07
2022-08-07T12:01:59.355Z,13.07
2022-08-07T12:04:25.331Z,13.13
2022-08-07T12:07:09.066Z,12.74
2022-08-07T12:09:46.145Z,13.13
2022-08-07T12:12:30.646Z,12.07
2022-08-07T12:15:17.346Z,12.07
2022-08-07T12:17:59.739Z,12.96
2022-08-07T12:20:32.280Z,11.96
2022-08-07T12:24:05.687Z,11.96
2022-08-07T12:26:22.651Z,13.25
2022-08-07T12:28:59.163Z,12.76
2022-08-07T12:31:52.972Z,12.76
2022-08-07T12:34:22.771Z,12.93
2022-08-07T12:36:54.847Z,12.83
2022-08-07T12:39:42.602Z,12.52
2022-08-07T12:42:00.369Z,12.52
2022-08-07T12:44:32.494Z,12.08
2022-08-07T12:47:08.980Z,12.58
2022-08-07T12:50:04.983Z,12.85
2022-08-07T12:52:52.347Z,12.85
2022-08-07T12:55:40.779Z,12.56
2022-08-07T12:58:01.118Z,12.53
2022-08-07T13:00:35.918Z,12.53
2022-08-07T13:03:27.009Z,13.38
2022-08-07T13:06:21.813Z,13.38
2022-08-07T13:10:22.028Z,13.11
2022-08-07T13:12:01.867Z,13.11
2022-08-07T13:14:51.375Z,12.12
2022-08-07T13:17:40.102Z,12.65
2022-08-07T13:20:04.727Z,12.65
2022-08-07T13:22:37.270Z,13.14
2022-08-07T13:25:34.612Z,13.77
2022-08-07T13:28:24.116Z,13.33
2022-08-07T13:31:02.143Z,12.84
2022-08-07T13:34:30.402Z,12.84
2022-08-07T13:36:17.667Z,13.19
2022-08-07T13:38:50.703Z,13.36
2022-08-07T13:41:41.686Z,13.37
2022-08-07T13:44:10.619Z,12.79
2022-08-07T13:46:49.282Z,12.91
2022-08-07T13:50:34.506Z,14.07
2022-08-07T13:52:04.461Z,14.07
2022-08-07T13:54:22.598Z,13.86
2022-08-07T13:56:59.633Z,13.86
2022-08-07T13:59:31.074Z,13.97
2022-08-07T14:02:13.497Z,13.88
2022-08-07T14:04:54.392Z,13.58
2022-08-07T14:07:28.254Z,13.41
2022-08-07T14:10:17.844Z,13.41
2022-08-07T14:12:56.169Z,14.10
2022-08-07T14:15:37.122Z,14.10
2022-08-07T14:18:24.531Z,13.10
2022-08-07T14:20:49.127Z,13.41
2022-08-07T14:23:58.965Z,13.19
2022-08-07T14:26:09.067Z,13.14
2022-08-07T14:28:59.076Z,13.37
2022-08-07T14:31:16.561Z,13.01
2022-08-07T14:33:47.706Z,13.77
2022-08-07T14:36:17.190Z,14.19
2022-08-07T14:38:50.449Z,14.19
2022-08-07T14:41:34.041Z,13.80
2022-08-07T14:44:15.679Z,13.79
2022-08-07T14:46:56.630Z,13.75
2022-08-07T14:49:55.915Z,13.75
2022-08-07T14:52:04.553Z,14.36
2022-08-07T14:54:33.033Z,14.36
2022-08-07T14:56:53.198Z,13.89
2022-08-07T15:00:05.780Z,13.69
2022-08-07T15:01:58.684Z,13.69
2022-08-07T15:04:28.875Z,14.36
2022-08-07T15:07:00.921Z,12.96
2022-08-07T15:09:59.325Z,13.90
2022-08-07T15:12:07.266Z,13.90
2022-08-07T15:14:55.738Z,13.80
2022-08-07T15:17:19.273Z,13.80
2022-08-07T15:22:33.628Z,14.17
2022-08-07T15:25:17.916Z,14.56
2022-08-07T15:27:37.414Z,14.31
2022-08-07T15:33:01.648Z,14.65
2022-08-07T15:36:00.760Z,14.65
2022-08-07T15:40:35.387Z,14.48
2022-08-07T15:43:22.594Z,14.52
2022-08-07T15:46:00.073Z,14.52
2022-08-07T15:48:32.441Z,14.68
2022-08-07T15:53:52.138Z,14.70
2022-08-07T15:56:17.341Z,14.75
2022-08-07T15:58:52.270Z,14.75
2022-08-07T16:01:41.460Z,14.95
2022-08-07T16:04:15.492Z,15.06
2022-08-07T16:06:56.629Z,15.06
2022-08-07T16:09:54.600Z,15.05
2022-08-07T16:12:38.939Z,15.22
2022-08-07T16:15:09.907Z,15.58
2022-08-07T16:18:08.339Z,15.23
2022-08-07T16:22:01.303Z,15.13
2022-08-07T16:24:33.694Z,15.13
2022-08-07T16:27:19.810Z,15.72
2022-08-07T16:30:11.592Z,15.72
2022-08-07T16:32:53.915Z,14.96
2022-08-07T16:35:59.445Z,16.21
2022-08-07T16:38:29.601Z,16.87
2022-08-07T16:41:12.980Z,16.87
2022-08-07T16:44:02.520Z,16.22
2022-08-07T16:47:06.424Z,16.47
2022-08-07T16:50:28.272Z,16.47
2022-08-07T16:52:51.552Z,16.65
2022-08-07T16:55:08.505Z,16.65
2022-08-07T16:58:01.788Z,16.58
2022-08-07T17:00:29.918Z,16.65
2022-08-07T17:03:04.837Z,16.79
2022-08-07T17:06:30.215Z,16.77
2022-08-07T17:09:10.409Z,16.77
2022-08-07T17:12:05.332Z,17.81
2022-08-07T17:14:19.627Z,17.71
2022-08-07T17:16:55.932Z,17.35
2022-08-07T17:20:02.055Z,17.26
2022-08-07T17:22:19.167Z,17.26
2022-08-07T17:25:01.880Z,17.79
2022-08-07T17:27:34.739Z,16.89
2022-08-07T17:30:16.083Z,16.70
2022-08-07T17:33:04.921Z,17.45
2022-08-07T17:35:55.231Z,17.45
2022-08-07T17:38:44.416Z,16.29
2022-08-07T17:42:03.845Z,16.49
2022-08-07T17:44:08.276Z,18.56
2022-08-07T17:46:35.578Z,17.62
2022-08-07T17:49:24.265Z,16.97
2022-08-07T17:52:14.529Z,18.34
2022-08-07T17:54:55.234Z,18.34
2022-08-07T17:57:58.232Z,16.50
2022-08-07T18:00:34.413Z,17.44
2022-08-07T18:04:04.529Z,16.76
2022-08-07T18:06:16.566Z,16.87
2022-08-07T18:09:01.004Z,17.81
2022-08-07T18:12:16.287Z,17.04
2022-08-07T18:14:31.611Z,17.04
2022-08-07T18:17:10.706Z,18.79
2022-08-07T18:21:02.611Z,18.79
2022-08-07T18:22:40.475Z,18.80
2022-08-07T18:25:19.472Z,19.06
2022-08-07T18:28:34.078Z,20.13
2022-08-07T18:31:07.989Z,20.13
2022-08-07T18:34:00.009Z,18.40
2022-08-07T18:36:37.932Z,19.36
2022-08-07T18:40:07.086Z,19.17
2022-08-07T18:41:57.909Z,19.00
2022-08-07T18:45:44.468Z,19.30
2022-08-07T18:47:44.676Z,19.30
2022-08-07T18:50:45.467Z,19.41
2022-08-07T18:53:18.982Z,18.11
2022-08-07T18:56:18.521Z,18.11
2022-08-07T18:58:59.298Z,18.62
2022-08-07T19:02:33.031Z,18.62
2022-08-07T19:04:59.508Z,18.22
2022-08-07T19:07:35.202Z,19.26
2022-08-07T19:10:04.757Z,19.38
2022-08-07T19:12:48.597Z,19.14
2022-08-07T19:16:04.666Z,18.65
2022-08-07T19:18:34.277Z,18.93
2022-08-07T19:21:09.095Z,18.93
2022-08-07T19:23:58.040Z,19.98
2022-08-07T19:26:25.250Z,20.00
2022-08-07T19:30:55.781Z,20.00
2022-08-07T19:31:58.654Z,20.17
2022-08-07T19:34:05.841Z,19.68
2022-08-07T19:36:43.362Z,19.05
2022-08-07T19:39:17.189Z,19.05
2022-08-07T19:42:08.356Z,19.82
2022-08-07T19:44:31.357Z,20.62
2022-08-07T19:47:06.310Z,21.05
2022-08-07T19:49:56.352Z,21.05
2022-08-07T19:52:09.989Z,21.49
2022-08-07T19:54:55.882Z,21.44
2022-08-07T19:58:02.555Z,21.23
2022-08-07T19:59:58.530Z,22.88
2022-08-07T20:02:39.202Z,22.88
2022-08-07T20:05:10.979Z,23.04
2022-08-07T20:07:47.271Z,23.26
2022-08-07T20:10:36.394Z,21.79
2022-08-07T20:12:49.167Z,21.53
2022-08-07T20:15:22.430Z,21.88
2022-08-07T20:18:01.376Z,21.88
2022-08-07T20:20:26.417Z,22.00
2022-08-07T20:22:59.583Z,22.00
2022-08-07T20:25:40.448Z,21.10
2022-08-07T20:28:07.736Z,21.66
2022-08-07T20:30:40.016Z,22.34
2022-08-07T20:33:36.924Z,22.34
2022-08-07T20:35:54.586Z,22.01
2022-08-07T20:38:21.255Z,21.64
2022-08-07T20:40:53.303Z,22.11
2022-08-07T20:43:25.959Z,22.13
2022-08-07T20:46:28.203Z,22.13
2022-08-07T20:48:33.968Z,21.31
2022-08-07T20:51:09.758Z,22.21
2022-08-07T20:54:03.534Z,22.21
2022-08-07T20:56:10.927Z,21.48
2022-08-07T20:58:43.601Z,21.48
2022-08-07T21:01:19.412Z,22.98
2022-08-07T21:04:18.704Z,23.24
2022-08-07T21:06:28.403Z,23.24
2022-08-07T21:09:14.310Z,24.03
2022-08-07T21:11:50.132Z,22.73
2022-08-07T21:14:34.177Z,23.00
2022-08-07T21:18:00.590Z,22.22
2022-08-07T21:19:51.574Z,22.79
2022-08-07T21:22:11.253Z,22.44
2022-08-07T21:25:13.076Z,24.50
2022-08-07T21:28:02.633Z,23.97
2022-08-07T21:30:49.791Z,23.97
2022-08-07T21:33:41.346Z,23.60
2022-08-07T21:36:12.010Z,23.07
2022-08-07T21:38:54.853Z,23.07
2022-08-07T21:41:27.670Z,24.07
2022-08-07T21:44:14.686Z,24.06
2022-08-07T21:46:50.528Z,24.06
2022-08-07T21:49:30.258Z,23.06
2022-08-07T21:52:16.488Z,23.50
2022-08-07T21:54:54.655Z,23.50
2022-08-07T21:57:51.709Z,23.27
2022-08-07T22:00:22.649Z,24.03
2022-08-07T22:03:17.418Z,24.03
2022-08-07T22:05:55.567Z,23.53
2022-08-07T22:08:27.706Z,23.61
2022-08-07T22:11:00.303Z,24.31
2022-08-07T22:13:50.906Z,24.31
2022-08-07T22:16:38.553Z,23.24
2022-08-07T22:19:17.872Z,23.24
2022-08-07T22:22:04.297Z,23.72
2022-08-07T22:24:43.517Z,24.09
2022-08-07T22:27:34.135Z,22.81
2022-08-07T22:30:04.337Z,24.03
2022-08-07T22:32:43.910Z,24.31
2022-08-07T22:35:13.675Z,24.73
2022-08-07T22:38:06.750Z,23.62
2022-08-07T22:41:07.737Z,23.62
2022-08-07T22:43:40.562Z,25.13
2022-08-07T22:46:56.032Z,25.13
2022-08-07T22:49:19.924Z,24.64
2022-08-07T22:51:54.638Z,24.83
2022-08-07T22:54:48.811Z,24.11
2022-08-07T22:57:32.570Z,24.11
2022-08-07T23:00:07.285Z,24.56
2022-08-07T23:02:40.121Z,24.30
2022-08-07T23:06:08.220Z,24.55
2022-08-07T23:08:22.264Z,24.65
2022-08-07T23:11:10.292Z,24.68
2022-08-07T23:14:15.441Z,24.68
2022-08-07T23:16:55.281Z,23.58
2022-08-07T23:20:00.121Z,24.09
2022-08-07T23:22:34.267Z,23.76
2022-08-07T23:25:32.053Z,23.95
2022-08-07T23:28:31.451Z,23.99
2022-08-07T23:32:49.678Z,24.10
2022-08-07T23:34:37.932Z,24.10
2022-08-07T23:37:31.501Z,24.96
2022-08-07T23:40:20.379Z,25.31
2022-08-07T23:42:56.735Z,26.70
2022-08-07T23:46:02.605Z,25.50
2022-08-07T23:48:36.097Z,25.13
2022-08-07T23:52:53.488Z,25.13
2022-08-07T23:53:59.676Z,25.35
2022-08-07T23:56:53.627Z,25.74
